Time;durP1;ratioP1;P1;durP2;ratioP2;P2;SDS_P1;SDS_P2;PMS_P1;PMS_P2;Temp;Humidity;BMP_temperature;BMP_pressure;BME280_temperature;BME280_humidity;BME280_pressure;Samples;Min_cycle;Max_cycle;Signal;HPM_P1;HPM_P2
2023/10/24 00:02:24;;;;;;;17.25;2.08;;;;;;;;;;6205963;23;20028;-85
2023/10/24 00:04:51;;;;;;;13.32;2.30;;;;;;;;;;6207367;23;20083;-85
2023/10/24 00:07:18;;;;;;;14.77;2.50;;;;;;;;;;6191486;23;20026;-85
2023/10/24 00:09:45;;;;;;;14.25;1.90;;;;;;;;;;6210572;23;20016;-85
2023/10/24 00:12:11;;;;;;;20.45;2.80;;;;;;;;;;6191019;23;20314;-84
2023/10/24 00:14:38;;;;;;;14.38;1.60;;;;;;;;;;6191824;23;20335;-84
2023/10/24 00:17:05;;;;;;;10.32;1.60;;;;;;;;;;6191633;23;20108;-85
2023/10/24 00:19:32;;;;;;;10.55;1.70;;;;;;;;;;6191574;23;20339;-85
2023/10/24 00:22:00;;;;;;;15.10;2.17;;;;;;;;;;6217316;23;20041;-85
2023/10/24 00:24:27;;;;;;;12.00;1.77;;;;;;;;;;6215968;23;20024;-85
2023/10/24 00:26:55;;;;;;;11.95;1.70;;;;;;;;;;6191639;23;20087;-85
2023/10/24 00:29:22;;;;;;;7.60;1.55;;;;;;;;;;6204916;23;20107;-84
2023/10/24 00:31:49;;;;;;;9.07;1.10;;;;;;;;;;6186702;23;20456;-85
2023/10/24 00:34:16;;;;;;;11.32;1.48;;;;;;;;;;6186419;23;20039;-85
2023/10/24 00:36:43;;;;;;;14.90;1.40;;;;;;;;;;6186879;23;20086;-85
2023/10/24 00:39:10;;;;;;;10.73;1.42;;;;;;;;;;6190594;23;20425;-85
2023/10/24 00:41:37;;;;;;;15.30;1.85;;;;;;;;;;6191576;23;20330;-85
2023/10/24 00:44:06;;;;;;;10.43;1.27;;;;;;;;;;6191414;23;20026;-83
2023/10/24 00:46:36;;;;;;;17.23;1.77;;;;;;;;;;6207838;23;20018;-85
2023/10/24 00:49:03;;;;;;;14.02;1.40;;;;;;;;;;6242147;23;20023;-85
2023/10/24 00:51:31;;;;;;;11.98;1.40;;;;;;;;;;6216246;23;20055;-85
2023/10/24 00:54:00;;;;;;;18.55;1.30;;;;;;;;;;6191388;23;20082;-85
2023/10/24 00:56:29;;;;;;;8.95;1.30;;;;;;;;;;6216205;23;20016;-85
2023/10/24 00:58:57;;;;;;;16.02;1.67;;;;;;;;;;6192167;23;20023;-85
2023/10/24 01:01:24;;;;;;;10.07;1.80;;;;;;;;;;6190901;23;20031;-85
2023/10/24 01:03:53;;;;;;;11.55;1.42;;;;;;;;;;6216592;23;20008;-85
2023/10/24 01:06:20;;;;;;;13.40;1.40;;;;;;;;;;6204515;23;20421;-85
2023/10/24 01:08:47;;;;;;;14.63;1.83;;;;;;;;;;6186424;23;20009;-84
2023/10/24 01:11:14;;;;;;;7.80;1.30;;;;;;;;;;6216545;23;20039;-85
2023/10/24 01:13:41;;;;;;;8.80;1.17;;;;;;;;;;6193538;23;20012;-85
2023/10/24 01:16:08;;;;;;;10.43;1.75;;;;;;;;;;6193277;23;20016;-85
2023/10/24 01:18:35;;;;;;;9.50;1.48;;;;;;;;;;6193537;23;20379;-85
2023/10/24 01:21:02;;;;;;;13.35;1.38;;;;;;;;;;6193798;23;20082;-85
2023/10/24 01:23:31;;;;;;;9.77;1.63;;;;;;;;;;6192697;23;20024;-85
2023/10/24 01:25:58;;;;;;;7.93;1.48;;;;;;;;;;6193819;23;20325;-85
2023/10/24 01:28:26;;;;;;;4.75;1.52;;;;;;;;;;6192432;23;20020;-85
2023/10/24 01:30:53;;;;;;;10.73;1.97;;;;;;;;;;6193629;23;20380;-85
2023/10/24 01:33:21;;;;;;;12.10;2.72;;;;;;;;;;6193023;23;20016;-84
2023/10/24 01:35:48;;;;;;;12.88;2.15;;;;;;;;;;6218425;23;20502;-85
2023/10/24 01:38:15;;;;;;;17.85;2.90;;;;;;;;;;6192725;23;20048;-84
2023/10/24 01:40:42;;;;;;;8.98;2.38;;;;;;;;;;6193615;23;20028;-84
2023/10/24 01:43:09;;;;;;;10.45;2.10;;;;;;;;;;6193071;23;20020;-84
2023/10/24 01:45:35;;;;;;;11.00;2.30;;;;;;;;;;6210212;23;20020;-85
2023/10/24 01:48:02;;;;;;;10.00;2.03;;;;;;;;;;6191570;23;20372;-84
2023/10/24 01:50:29;;;;;;;11.20;1.98;;;;;;;;;;6192515;23;20346;-85
2023/10/24 01:52:58;;;;;;;18.92;2.00;;;;;;;;;;6193647;23;20022;-84
2023/10/24 01:55:25;;;;;;;;;;;;;;;;;;6218057;23;20044;-84
2023/10/24 01:57:52;;;;;;;13.73;1.77;;;;;;;;;;6218213;23;19943;-85
2023/10/24 02:00:19;;;;;;;13.55;2.50;;;;;;;;;;6192536;23;20095;-85
2023/10/24 02:02:46;;;;;;;12.18;1.98;;;;;;;;;;6193345;23;20011;-84
2023/10/24 02:05:14;;;;;;;8.27;2.00;;;;;;;;;;6192683;23;20016;-85
2023/10/24 02:07:40;;;;;;;11.40;1.95;;;;;;;;;;6193340;23;20043;-84
2023/10/24 02:10:07;;;;;;;9.73;1.80;;;;;;;;;;6192946;23;20441;-85
2023/10/24 02:12:35;;;;;;;11.10;1.73;;;;;;;;;;6192870;23;20026;-85
2023/10/24 02:15:04;;;;;;;12.40;1.90;;;;;;;;;;6215798;23;20012;-86
2023/10/24 02:17:30;;;;;;;;;;;;;;;;;;6192846;23;20095;-85
2023/10/24 02:19:57;;;;;;;14.93;1.52;;;;;;;;;;6193050;23;19961;-86
2023/10/24 02:22:24;;;;;;;8.80;1.45;;;;;;;;;;6192045;23;20095;-85
2023/10/24 02:24:53;;;;;;;11.25;1.65;;;;;;;;;;6193052;23;20020;-85
2023/10/24 02:27:19;;;;;;;14.48;1.42;;;;;;;;;;6192113;23;20020;-85
2023/10/24 02:29:46;;;;;;;13.10;1.65;;;;;;;;;;6217772;23;20016;-85
2023/10/24 02:32:13;;;;;;;16.52;1.70;;;;;;;;;;6192584;23;20088;-85
2023/10/24 02:34:40;;;;;;;9.48;1.63;;;;;;;;;;6192824;23;20132;-85
2023/10/24 02:37:07;;;;;;;6.97;0.93;;;;;;;;;;6217274;23;20032;-85
2023/10/24 02:39:34;;;;;;;10.63;1.52;;;;;;;;;;6217686;23;20370;-85
2023/10/24 02:42:02;;;;;;;13.77;1.15;;;;;;;;;;6192995;23;20016;-85
2023/10/24 02:44:29;;;;;;;5.47;0.90;;;;;;;;;;6192112;23;20074;-85
2023/10/24 02:46:56;;;;;;;9.32;1.30;;;;;;;;;;6192673;23;20039;-84
2023/10/24 02:49:22;;;;;;;10.40;1.10;;;;;;;;;;6192205;23;20009;-86
2023/10/24 02:51:49;;;;;;;15.35;2.20;;;;;;;;;;6192703;23;20691;-85
2023/10/24 02:54:16;;;;;;;13.95;1.10;;;;;;;;;;6191963;23;20036;-85
2023/10/24 02:56:43;;;;;;;10.68;1.60;;;;;;;;;;6217588;23;20357;-85
2023/10/24 02:59:11;;;;;;;5.43;0.80;;;;;;;;;;6192017;23;20024;-85
2023/10/24 03:01:38;;;;;;;7.20;0.98;;;;;;;;;;6192405;23;20043;-85
2023/10/24 03:04:05;;;;;;;7.32;1.10;;;;;;;;;;6215360;23;20012;-85
2023/10/24 03:06:32;;;;;;;13.32;1.70;;;;;;;;;;6192188;23;20040;-85
2023/10/24 03:08:59;;;;;;;8.05;1.02;;;;;;;;;;6192843;23;20019;-85
2023/10/24 03:11:26;;;;;;;7.82;1.27;;;;;;;;;;6191764;23;20012;-85
2023/10/24 03:13:53;;;;;;;8.38;1.65;;;;;;;;;;6192509;23;20130;-85
2023/10/24 03:16:21;;;;;;;13.60;1.25;;;;;;;;;;6205567;23;20023;-85
2023/10/24 03:18:48;;;;;;;13.27;1.90;;;;;;;;;;6187677;23;20433;-85
2023/10/24 03:21:16;;;;;;;7.63;1.50;;;;;;;;;;6186829;23;20021;-85
2023/10/24 03:23:46;;;;;;;8.75;1.40;;;;;;;;;;6187361;23;20035;-85
2023/10/24 03:26:13;;;;;;;5.72;1.05;;;;;;;;;;6191912;23;20032;-85
2023/10/24 03:28:40;;;;;;;12.88;1.45;;;;;;;;;;6192181;23;20100;-85
2023/10/24 03:31:08;;;;;;;9.02;1.30;;;;;;;;;;6191966;23;20034;-85
2023/10/24 03:33:35;;;;;;;10.30;1.43;;;;;;;;;;6191922;23;20020;-85
2023/10/24 03:36:02;;;;;;;13.48;1.70;;;;;;;;;;6217645;23;20247;-85
2023/10/24 03:38:30;;;;;;;11.32;2.00;;;;;;;;;;6191312;23;20024;-84
2023/10/24 03:40:57;;;;;;;5.88;1.30;;;;;;;;;;6192287;23;20043;-84
2023/10/24 03:43:24;;;;;;;11.07;1.50;;;;;;;;;;6191878;23;20091;-85
2023/10/24 03:45:51;;;;;;;15.35;1.42;;;;;;;;;;6192187;23;20016;-85
2023/10/24 03:48:17;;;;;;;6.35;1.20;;;;;;;;;;6191647;23;20099;-84
2023/10/24 03:50:44;;;;;;;9.73;1.10;;;;;;;;;;6191891;23;20038;-85
2023/10/24 03:53:11;;;;;;;16.13;2.55;;;;;;;;;;6216917;23;20095;-85
2023/10/24 03:55:38;;;;;;;13.50;3.50;;;;;;;;;;6191948;23;20016;-85
2023/10/24 03:58:05;;;;;;;10.32;2.00;;;;;;;;;;6191671;23;20485;-84
2023/10/24 04:00:32;;;;;;;9.05;2.20;;;;;;;;;;6191895;23;20016;-84
2023/10/24 04:03:00;;;;;;;14.27;2.40;;;;;;;;;;6192410;23;20020;-84
2023/10/24 04:05:30;;;;;;;8.75;1.98;;;;;;;;;;6216303;23;20107;-84
2023/10/24 04:07:57;;;;;;;9.77;1.60;;;;;;;;;;6217515;23;20378;-85
2023/10/24 04:10:24;;;;;;;8.00;1.58;;;;;;;;;;6216382;23;20016;-85
2023/10/24 04:12:51;;;;;;;10.57;1.58;;;;;;;;;;6192286;23;20035;-84
2023/10/24 04:15:18;;;;;;;7.80;1.27;;;;;;;;;;6191249;23;20013;-85
2023/10/24 04:17:44;;;;;;;11.90;1.67;;;;;;;;;;6191919;23;20024;-85
2023/10/24 04:20:11;;;;;;;13.23;1.88;;;;;;;;;;6191469;23;20091;-84
2023/10/24 04:22:42;;;;;;;13.95;1.45;;;;;;;;;;6192555;23;20019;-85
2023/10/24 04:25:09;;;;;;;10.88;1.38;;;;;;;;;;6191645;23;20087;-84
2023/10/24 04:27:36;;;;;;;6.32;1.70;;;;;;;;;;6191545;23;20012;-85
2023/10/24 04:30:05;;;;;;;11.02;2.80;;;;;;;;;;6192405;23;20087;-85
2023/10/24 04:32:31;;;;;;;7.20;2.53;;;;;;;;;;6191062;23;20020;-85
2023/10/24 04:34:58;;;;;;;11.45;2.67;;;;;;;;;;6193213;23;20404;-84
2023/10/24 04:37:25;;;;;;;13.25;3.35;;;;;;;;;;6218163;23;20016;-84
2023/10/24 04:39:54;;;;;;;12.07;2.72;;;;;;;;;;6197155;23;20016;-84
2023/10/24 04:42:21;;;;;;;;;;;;;;;;;;6196825;23;20379;-85
2023/10/24 04:44:48;;;;;;;14.10;2.60;;;;;;;;;;6219568;23;19939;-84
2023/10/24 04:47:15;;;;;;;18.50;3.22;;;;;;;;;;6190505;23;20016;-84
2023/10/24 04:49:45;;;;;;;21.33;15.07;;;;;;;;;;6191737;23;20713;-89
2023/10/24 04:53:06;;;;;;;;;;;;;;;;;;;;;
2023/10/24 04:55:33;;;;;;;15.35;8.30;;;;;;;;;;6064744;23;20419;-85
2023/10/24 04:58:00;;;;;;;12.40;5.93;;;;;;;;;;6043727;23;20098;-85
2023/10/24 05:00:27;;;;;;;13.18;5.28;;;;;;;;;;6066678;23;20446;-83
2023/10/24 05:02:53;;;;;;;8.90;4.43;;;;;;;;;;6067441;23;20053;-85
2023/10/24 05:05:20;;;;;;;8.18;3.63;;;;;;;;;;6066587;23;20400;-84
2023/10/24 05:07:48;;;;;;;8.50;4.78;;;;;;;;;;6091425;23;20514;-84
2023/10/24 05:10:15;;;;;;;11.23;7.47;;;;;;;;;;6090765;23;20018;-83
2023/10/24 05:12:42;;;;;;;16.35;6.43;;;;;;;;;;6091126;23;20062;-85
2023/10/24 05:15:09;;;;;;;10.13;3.10;;;;;;;;;;6043325;23;20090;-85
2023/10/24 05:17:36;;;;;;;9.23;2.30;;;;;;;;;;6067213;23;20022;-84
2023/10/24 05:20:07;;;;;;;9.52;3.38;;;;;;;;;;6067427;23;20347;-83
2023/10/24 05:22:34;;;;;;;7.97;2.15;;;;;;;;;;6066516;23;20023;-83
2023/10/24 05:25:01;;;;;;;13.80;2.40;;;;;;;;;;6091733;23;20038;-81
2023/10/24 05:27:31;;;;;;;10.23;2.42;;;;;;;;;;6037931;23;20047;-84
2023/10/24 05:29:58;;;;;;;7.72;1.70;;;;;;;;;;6015447;23;20018;-84
2023/10/24 05:32:24;;;;;;;11.85;2.03;;;;;;;;;;6113116;23;20016;-84
2023/10/24 05:34:51;;;;;;;14.43;1.70;;;;;;;;;;6186721;23;20299;-84
2023/10/24 05:37:18;;;;;;;12.98;2.05;;;;;;;;;;6185613;23;20020;-83
2023/10/24 05:39:45;;;;;;;11.05;2.08;;;;;;;;;;6161704;23;20009;-84
2023/10/24 05:42:12;;;;;;;11.23;1.75;;;;;;;;;;6160958;23;20103;-84
2023/10/24 05:44:39;;;;;;;8.25;1.88;;;;;;;;;;6161708;23;20009;-83
2023/10/24 05:47:06;;;;;;;10.70;1.77;;;;;;;;;;6185888;23;20019;-84
2023/10/24 05:49:34;;;;;;;11.95;1.83;;;;;;;;;;6161518;23;20016;-84
2023/10/24 05:52:00;;;;;;;12.47;2.03;;;;;;;;;;6162002;23;20021;-84
2023/10/24 05:54:27;;;;;;;8.05;1.73;;;;;;;;;;6160838;23;20031;-83
2023/10/24 05:56:54;;;;;;;12.43;1.95;;;;;;;;;;6161567;23;20039;-84
2023/10/24 05:59:21;;;;;;;11.57;2.00;;;;;;;;;;6162532;23;20095;-84
2023/10/24 06:01:48;;;;;;;13.35;1.98;;;;;;;;;;6164025;23;20035;-84
2023/10/24 06:04:15;;;;;;;9.15;1.73;;;;;;;;;;6164920;23;20303;-84
2023/10/24 06:06:42;;;;;;;7.70;1.63;;;;;;;;;;6190059;23;20012;-84
2023/10/24 06:09:12;;;;;;;11.65;1.70;;;;;;;;;;6189515;23;20025;-85
2023/10/24 06:11:39;;;;;;;10.63;1.52;;;;;;;;;;6190024;23;20023;-84
2023/10/24 06:14:06;;;;;;;11.77;3.78;;;;;;;;;;6187556;23;20088;-83
2023/10/24 06:16:33;;;;;;;18.50;8.68;;;;;;;;;;6216169;23;20040;-84
2023/10/24 06:19:00;;;;;;;11.65;4.47;;;;;;;;;;6189748;23;20274;-83
2023/10/24 06:21:26;;;;;;;13.75;4.85;;;;;;;;;;6215450;23;20453;-84
2023/10/24 06:23:55;;;;;;;12.90;4.15;;;;;;;;;;6190297;23;20019;-85
2023/10/24 06:26:22;;;;;;;10.80;3.50;;;;;;;;;;6164486;23;20016;-85
2023/10/24 06:28:49;;;;;;;9.80;2.78;;;;;;;;;;6184283;23;20017;-85
2023/10/24 06:31:17;;;;;;;15.20;2.20;;;;;;;;;;6188925;23;20111;-84
2023/10/24 06:33:44;;;;;;;15.67;2.40;;;;;;;;;;6213951;23;20071;-85
2023/10/24 06:36:10;;;;;;;11.27;2.10;;;;;;;;;;6193331;23;20095;-85
2023/10/24 06:38:37;;;;;;;9.18;1.83;;;;;;;;;;6194734;23;20012;-86
2023/10/24 06:41:08;;;;;;;8.50;1.98;;;;;;;;;;6194168;23;20490;-84
2023/10/24 06:43:35;;;;;;;7.03;2.35;;;;;;;;;;6194937;23;20012;-84
2023/10/24 06:46:04;;;;;;;7.25;2.17;;;;;;;;;;6219947;23;20093;-83
2023/10/24 06:48:32;;;;;;;8.70;2.50;;;;;;;;;;6194473;23;20020;-85
2023/10/24 06:50:59;;;;;;;11.27;2.42;;;;;;;;;;6195032;23;20013;-85
2023/10/24 06:53:26;;;;;;;6.88;2.97;;;;;;;;;;6195292;23;20070;-84
2023/10/24 06:56:01;;;;;;;16.13;3.17;;;;;;;;;;6195084;23;20091;-85
2023/10/24 06:58:28;;;;;;;11.90;3.17;;;;;;;;;;6193817;23;20417;-85
2023/10/24 07:00:55;;;;;;;5.97;1.90;;;;;;;;;;6194483;23;20492;-84
2023/10/24 07:03:22;;;;;;;8.80;2.40;;;;;;;;;;6194513;23;20020;-84
2023/10/24 07:05:53;;;;;;;8.75;2.63;;;;;;;;;;6220618;23;20016;-85
2023/10/24 07:08:21;;;;;;;11.00;2.53;;;;;;;;;;6193628;23;20017;-84
2023/10/24 07:10:48;;;;;;;9.00;2.88;;;;;;;;;;6194180;23;20020;-85
2023/10/24 07:13:16;;;;;;;9.27;2.72;;;;;;;;;;6193691;23;20029;-85
2023/10/24 07:15:42;;;;;;;7.32;2.20;;;;;;;;;;6194394;23;20012;-85
2023/10/24 07:18:10;;;;;;;10.45;2.58;;;;;;;;;;6193860;23;20034;-84
2023/10/24 07:20:38;;;;;;;8.93;2.70;;;;;;;;;;6194551;23;20276;-84
2023/10/24 07:23:05;;;;;;;9.55;2.03;;;;;;;;;;6193596;23;20016;-85
2023/10/24 07:25:32;;;;;;;7.00;2.10;;;;;;;;;;6194536;23;20012;-85
2023/10/24 07:27:59;;;;;;;9.23;2.75;;;;;;;;;;6194067;23;20094;-85
2023/10/24 07:30:26;;;;;;;9.63;2.50;;;;;;;;;;6193454;23;20020;-84
2023/10/24 07:32:56;;;;;;;6.18;2.33;;;;;;;;;;6194235;23;20043;-85
2023/10/24 07:35:23;;;;;;;10.40;2.50;;;;;;;;;;6193084;23;20023;-85
2023/10/24 07:37:50;;;;;;;8.90;2.83;;;;;;;;;;6194126;23;20016;-85
2023/10/24 07:40:17;;;;;;;6.90;2.70;;;;;;;;;;6193426;23;20848;-85
2023/10/24 07:42:44;;;;;;;10.15;2.63;;;;;;;;;;6193975;23;20460;-85
2023/10/24 07:45:11;;;;;;;9.30;2.00;;;;;;;;;;6193343;23;20023;-85
2023/10/24 07:47:38;;;;;;;6.57;1.98;;;;;;;;;;6196279;23;20039;-85
2023/10/24 07:50:07;;;;;;;7.22;1.52;;;;;;;;;;6194137;23;20452;-83
2023/10/24 07:52:34;;;;;;;7.50;1.42;;;;;;;;;;6193576;23;20023;-83
2023/10/24 07:55:01;;;;;;;8.13;1.15;;;;;;;;;;6193865;23;20042;-84
2023/10/24 07:57:29;;;;;;;11.15;1.73;;;;;;;;;;6193205;23;20083;-84
2023/10/24 07:59:57;;;;;;;9.35;1.52;;;;;;;;;;6193771;23;20016;-84
2023/10/24 08:02:24;;;;;;;5.78;1.38;;;;;;;;;;6190825;23;20073;-83
2023/10/24 08:04:51;;;;;;;12.38;1.50;;;;;;;;;;6192275;23;20421;-82
2023/10/24 08:07:18;;;;;;;11.13;1.75;;;;;;;;;;6191592;23;20024;-87
2023/10/24 08:09:45;;;;;;;11.07;1.55;;;;;;;;;;6192315;23;20035;-86
2023/10/24 08:12:12;;;;;;;7.97;2.10;;;;;;;;;;6215887;23;20047;-86
2023/10/24 08:14:39;;;;;;;7.30;1.85;;;;;;;;;;6192060;23;20016;-86
2023/10/24 08:17:06;;;;;;;17.95;2.35;;;;;;;;;;6191610;23;20016;-86
2023/10/24 08:19:34;;;;;;;6.68;2.10;;;;;;;;;;6191807;23;20445;-86
2023/10/24 08:22:00;;;;;;;13.75;2.67;;;;;;;;;;6188955;23;20018;-86
2023/10/24 08:24:29;;;;;;;8.13;2.30;;;;;;;;;;6189355;23;20024;-85
2023/10/24 08:26:56;;;;;;;11.27;3.78;;;;;;;;;;6187835;23;20703;-85
2023/10/24 08:29:37;;;;;;;12.93;3.53;;;;;;;;;;6191910;23;20027;-85
2023/10/24 08:32:04;;;;;;;12.35;4.05;;;;;;;;;;6191005;23;20425;-84
2023/10/24 08:34:39;;;;;;;10.85;3.03;;;;;;;;;;6216252;23;20031;-86
2023/10/24 08:37:08;;;;;;;10.77;3.30;;;;;;;;;;6190755;23;20047;-85
2023/10/24 08:39:35;;;;;;;16.33;3.92;;;;;;;;;;6191530;23;20024;-86
2023/10/24 08:42:02;;;;;;;13.95;2.70;;;;;;;;;;6192247;23;20016;-86
2023/10/24 08:44:30;;;;;;;11.10;2.75;;;;;;;;;;6191256;23;20088;-85
2023/10/24 08:46:57;;;;;;;6.05;2.97;;;;;;;;;;6191958;23;20009;-85
2023/10/24 08:49:24;;;;;;;10.85;2.72;;;;;;;;;;6205793;23;20078;-86
2023/10/24 08:51:51;;;;;;;12.60;2.90;;;;;;;;;;6187300;23;20465;-86
2023/10/24 08:54:18;;;;;;;7.43;2.25;;;;;;;;;;6190940;23;20071;-86
2023/10/24 08:56:45;;;;;;;10.02;2.55;;;;;;;;;;6191413;23;20023;-86
2023/10/24 08:59:16;;;;;;;17.00;3.72;;;;;;;;;;6192196;23;20031;-86
2023/10/24 09:01:44;;;;;;;12.68;3.70;;;;;;;;;;6192072;23;20413;-85
2023/10/24 09:04:11;;;;;;;9.15;2.10;;;;;;;;;;6189037;23;20087;-86
2023/10/24 09:06:38;;;;;;;5.30;1.42;;;;;;;;;;6192536;23;20016;-86
2023/10/24 09:09:34;;;;;;;10.25;1.67;;;;;;;;;;6190430;23;20047;-95
2023/10/24 09:12:21;;;;;;;10.13;2.03;;;;;;;;;;6060332;23;20020;-86
2023/10/24 09:14:48;;;;;;;11.55;1.58;;;;;;;;;;6101199;23;20112;-86
2023/10/24 09:17:22;;;;;;;8.68;1.20;;;;;;;;;;6101643;23;20446;-86
2023/10/24 09:19:49;;;;;;;9.75;1.50;;;;;;;;;;6119682;23;20044;-85
2023/10/24 09:22:17;;;;;;;13.02;1.40;;;;;;;;;;6142327;23;20021;-86
2023/10/24 09:24:45;;;;;;;11.85;1.25;;;;;;;;;;6130927;23;20017;-85
2023/10/24 09:27:14;;;;;;;7.80;1.27;;;;;;;;;;6153587;23;20021;-85
2023/10/24 09:29:41;;;;;;;6.93;1.20;;;;;;;;;;6148426;23;20024;-85
2023/10/24 09:32:15;;;;;;;6.80;1.17;;;;;;;;;;6129793;23;20024;-85
2023/10/24 09:34:44;;;;;;;11.77;1.58;;;;;;;;;;6150872;23;20024;-85
2023/10/24 09:37:13;;;;;;;10.57;1.65;;;;;;;;;;6131458;23;20024;-86
2023/10/24 09:39:57;;;;;;;11.82;1.58;;;;;;;;;;6150149;23;20017;-86
2023/10/24 09:42:29;;;;;;;14.85;2.08;;;;;;;;;;6144156;23;20370;-88
2023/10/24 09:45:04;;;;;;;11.13;1.80;;;;;;;;;;6130753;23;20139;-85
2023/10/24 09:47:32;;;;;;;9.55;1.45;;;;;;;;;;6146747;23;20052;-86
2023/10/24 09:49:59;;;;;;;10.30;1.55;;;;;;;;;;6210695;22;20428;-86
2023/10/24 09:52:29;;;;;;;9.93;1.60;;;;;;;;;;6247500;22;20444;-86
2023/10/24 09:54:57;;;;;;;7.60;1.20;;;;;;;;;;6223989;22;20012;-86
2023/10/24 09:57:26;;;;;;;12.85;1.63;;;;;;;;;;6218606;23;20090;-87
2023/10/24 09:59:55;;;;;;;11.40;1.73;;;;;;;;;;6214609;22;20028;-86
2023/10/24 10:02:24;;;;;;;10.07;1.70;;;;;;;;;;6222950;22;20091;-87
2023/10/24 10:04:51;;;;;;;12.32;1.88;;;;;;;;;;6223179;22;20019;-87
2023/10/24 10:07:20;;;;;;;8.25;0.88;;;;;;;;;;6223175;22;20016;-87
2023/10/24 10:09:51;;;;;;;8.50;1.08;;;;;;;;;;6217993;23;20062;-86
2023/10/24 10:12:18;;;;;;;10.55;1.25;;;;;;;;;;6235289;22;20024;-85
2023/10/24 10:15:11;;;;;;;11.15;1.10;;;;;;;;;;6248409;22;20020;-86
2023/10/24 10:17:43;;;;;;;11.15;1.23;;;;;;;;;;6247840;22;20023;-87
2023/10/24 10:20:39;;;;;;;3.58;0.82;;;;;;;;;;6222254;22;20102;-87
2023/10/24 10:23:27;;;;;;;3.45;0.75;;;;;;;;;;6245636;22;20012;-88
2023/10/24 10:26:07;;;;;;;5.13;0.65;;;;;;;;;;6248430;22;20528;-87
2023/10/24 10:29:09;;;;;;;2.88;0.80;;;;;;;;;;6272991;22;20074;-87
2023/10/24 10:32:04;;;;;;;3.53;0.65;;;;;;;;;;6235623;22;20454;-87
2023/10/24 10:34:51;;;;;;;7.97;1.02;;;;;;;;;;6225279;22;20019;-86
2023/10/24 10:37:18;;;;;;;6.90;1.20;;;;;;;;;;6247586;22;20019;-86
2023/10/24 10:40:15;;;;;;;4.65;0.70;;;;;;;;;;6247364;22;20050;-86
2023/10/24 10:42:49;;;;;;;9.63;1.30;;;;;;;;;;6241912;22;20023;-85
2023/10/24 10:45:30;;;;;;;11.43;1.65;;;;;;;;;;6221719;22;20542;-87
2023/10/24 10:47:58;;;;;;;9.48;1.05;;;;;;;;;;6247413;22;20094;-86
2023/10/24 10:50:30;;;;;;;10.73;1.45;;;;;;;;;;6221992;22;20062;-86
2023/10/24 10:53:01;;;;;;;13.98;1.90;;;;;;;;;;6223246;22;20496;-86
2023/10/24 10:56:13;;;;;;;15.50;1.88;;;;;;;;;;6247623;22;20436;-86
2023/10/24 10:58:40;;;;;;;9.77;1.60;;;;;;;;;;6247515;22;20452;-86
2023/10/24 11:01:29;;;;;;;6.10;1.33;;;;;;;;;;6222220;22;20115;-86
2023/10/24 11:03:58;;;;;;;8.35;1.50;;;;;;;;;;6223245;22;20436;-87
2023/10/24 11:06:27;;;;;;;14.07;2.17;;;;;;;;;;6221622;22;20363;-86
2023/10/24 11:09:11;;;;;;;12.77;1.85;;;;;;;;;;6221746;22;20041;-86
2023/10/24 11:11:39;;;;;;;10.82;1.88;;;;;;;;;;6234111;23;20017;-87
2023/10/24 11:14:32;;;;;;;13.05;3.35;;;;;;;;;;6218412;22;20455;-86
2023/10/24 11:16:59;;;;;;;12.68;2.30;;;;;;;;;;6219942;22;20047;-87
2023/10/24 11:19:28;;;;;;;7.78;1.90;;;;;;;;;;6218578;23;20095;-88
2023/10/24 11:21:56;;;;;;;12.57;1.83;;;;;;;;;;6216464;22;20848;-87
2023/10/24 11:24:24;;;;;;;9.50;2.63;;;;;;;;;;6248330;22;20038;-87
2023/10/24 11:26:53;;;;;;;8.63;1.70;;;;;;;;;;6248009;22;20019;-86
2023/10/24 11:29:20;;;;;;;9.02;1.33;;;;;;;;;;6223523;22;20019;-87
2023/10/24 11:31:48;;;;;;;10.70;1.33;;;;;;;;;;6249681;22;20365;-87
2023/10/24 11:34:18;;;;;;;10.45;1.60;;;;;;;;;;6223768;22;20019;-86
2023/10/24 11:36:46;;;;;;;9.63;2.00;;;;;;;;;;6249417;22;20022;-87
2023/10/24 11:39:14;;;;;;;11.48;1.58;;;;;;;;;;6223252;22;20494;-86
2023/10/24 11:41:42;;;;;;;10.80;1.27;;;;;;;;;;6224346;22;20073;-86
2023/10/24 11:44:11;;;;;;;11.60;1.30;;;;;;;;;;6222430;22;20441;-87
2023/10/24 11:46:39;;;;;;;13.35;1.30;;;;;;;;;;6223846;22;20348;-86
2023/10/24 11:49:06;;;;;;;8.00;1.23;;;;;;;;;;6223072;22;20424;-87
2023/10/24 11:51:37;;;;;;;12.43;4.10;;;;;;;;;;6248876;22;20331;-86
2023/10/24 11:54:06;;;;;;;8.38;2.30;;;;;;;;;;6223238;22;20020;-85
2023/10/24 11:56:33;;;;;;;8.00;2.33;;;;;;;;;;6224002;22;20079;-86
2023/10/24 11:59:02;;;;;;;11.63;1.60;;;;;;;;;;6223580;22;20065;-86
2023/10/24 12:01:31;;;;;;;8.15;1.30;;;;;;;;;;6223031;22;20027;-86
2023/10/24 12:04:00;;;;;;;13.63;4.10;;;;;;;;;;6224306;22;20039;-85
2023/10/24 12:06:28;;;;;;;9.07;1.70;;;;;;;;;;6222897;22;20015;-85
2023/10/24 12:08:57;;;;;;;7.22;1.20;;;;;;;;;;6223540;22;20012;-87
2023/10/24 12:11:25;;;;;;;14.10;2.22;;;;;;;;;;6222514;22;20395;-86
2023/10/24 12:13:52;;;;;;;13.10;2.80;;;;;;;;;;6248760;22;20111;-86
2023/10/24 12:16:19;;;;;;;11.15;3.05;;;;;;;;;;6247879;22;20020;-88
2023/10/24 12:18:46;;;;;;;12.35;1.92;;;;;;;;;;6223735;22;20059;-87
2023/10/24 12:21:13;;;;;;;8.10;2.22;;;;;;;;;;6248512;22;20015;-88
2023/10/24 12:23:40;;;;;;;9.10;1.70;;;;;;;;;;6247965;22;20031;-87
2023/10/24 12:26:07;;;;;;;13.68;3.15;;;;;;;;;;6247888;22;20016;-88
2023/10/24 12:28:36;;;;;;;14.77;5.47;;;;;;;;;;6223968;22;20321;-87
2023/10/24 12:31:03;;;;;;;11.90;4.43;;;;;;;;;;6249379;22;20015;-86
2023/10/24 12:33:31;;;;;;;11.73;4.75;;;;;;;;;;6222505;22;20020;-88
2023/10/24 12:35:59;;;;;;;10.75;5.10;;;;;;;;;;6248508;22;20086;-87
2023/10/24 12:38:28;;;;;;;13.82;5.18;;;;;;;;;;6223150;22;20355;-87
2023/10/24 12:40:55;;;;;;;17.30;5.60;;;;;;;;;;6223703;22;20332;-87
2023/10/24 12:43:22;;;;;;;16.50;4.47;;;;;;;;;;6222861;22;20447;-86
2023/10/24 12:45:50;;;;;;;13.27;3.40;;;;;;;;;;6249139;22;20018;-86
2023/10/24 12:48:17;;;;;;;13.35;3.50;;;;;;;;;;6248393;22;20026;-86
2023/10/24 12:50:46;;;;;;;13.25;2.50;;;;;;;;;;6249713;22;20432;-86
2023/10/24 12:53:13;;;;;;;13.20;2.38;;;;;;;;;;6248019;22;20090;-86
2023/10/24 12:55:40;;;;;;;15.60;2.72;;;;;;;;;;6274054;22;20015;-86
2023/10/24 12:58:07;;;;;;;12.27;3.00;;;;;;;;;;6222501;22;20012;-87
2023/10/24 13:00:36;;;;;;;12.20;2.92;;;;;;;;;;6223421;22;20023;-86
2023/10/24 13:03:03;;;;;;;19.48;4.70;;;;;;;;;;6222725;22;20332;-86
2023/10/24 13:05:45;;;;;;;10.98;2.95;;;;;;;;;;6225272;22;20061;-86
2023/10/24 13:08:12;;;;;;;12.02;3.65;;;;;;;;;;6221616;22;20015;-86
2023/10/24 13:10:40;;;;;;;12.88;3.13;;;;;;;;;;6223757;22;20038;-87
2023/10/24 13:13:07;;;;;;;17.85;4.80;;;;;;;;;;6222793;22;20016;-86
2023/10/24 13:15:34;;;;;;;10.90;2.10;;;;;;;;;;6248108;22;20428;-86
2023/10/24 13:18:01;;;;;;;13.20;1.48;;;;;;;;;;6223942;22;20026;-84
2023/10/24 13:20:27;;;;;;;11.30;1.30;;;;;;;;;;6247920;22;20095;-86
2023/10/24 13:22:54;;;;;;;10.45;1.58;;;;;;;;;;6248264;22;20016;-86
2023/10/24 13:25:21;;;;;;;18.15;1.95;;;;;;;;;;6223344;22;20039;-87
2023/10/24 13:27:48;;;;;;;8.85;1.52;;;;;;;;;;6249355;22;20069;-87
2023/10/24 13:30:15;;;;;;;14.40;1.73;;;;;;;;;;6247857;22;20027;-86
2023/10/24 13:33:02;;;;;;;9.90;1.85;;;;;;;;;;6248067;22;20012;-86
2023/10/24 13:35:29;;;;;;;5.78;1.05;;;;;;;;;;6247843;22;20488;-86
2023/10/24 13:37:59;;;;;;;10.18;1.35;;;;;;;;;;6224378;22;20015;-86
2023/10/24 13:40:26;;;;;;;15.02;2.22;;;;;;;;;;6248532;22;20020;-86
2023/10/24 13:42:53;;;;;;;4.30;1.17;;;;;;;;;;6249049;22;20046;-87
2023/10/24 13:45:20;;;;;;;8.80;1.20;;;;;;;;;;6247784;22;20016;-87
2023/10/24 13:47:47;;;;;;;11.48;2.28;;;;;;;;;;6248629;22;20059;-86
2023/10/24 13:50:14;;;;;;;6.05;0.93;;;;;;;;;;6242696;22;20318;-86
2023/10/24 13:52:41;;;;;;;9.60;1.98;;;;;;;;;;6269257;22;20020;-86
2023/10/24 13:55:08;;;;;;;9.73;1.30;;;;;;;;;;6246249;22;20012;-86
2023/10/24 13:57:35;;;;;;;7.40;1.25;;;;;;;;;;6223060;22;20027;-86
2023/10/24 14:00:03;;;;;;;10.20;1.58;;;;;;;;;;6246134;22;20370;-86
2023/10/24 14:02:30;;;;;;;10.85;1.48;;;;;;;;;;6222470;22;20023;-86
2023/10/24 14:04:57;;;;;;;8.80;1.65;;;;;;;;;;6223174;22;20019;-86
2023/10/24 14:07:24;;;;;;;13.07;2.53;;;;;;;;;;6247814;22;20047;-87
2023/10/24 14:09:51;;;;;;;10.90;2.63;;;;;;;;;;6247977;22;20012;-87
2023/10/24 14:12:18;;;;;;;14.38;4.70;;;;;;;;;;6222376;22;20016;-86
2023/10/24 14:14:45;;;;;;;16.63;7.05;;;;;;;;;;6247600;22;20012;-87
2023/10/24 14:17:11;;;;;;;11.65;3.38;;;;;;;;;;6247482;22;20015;-87
2023/10/24 14:19:40;;;;;;;8.85;2.20;;;;;;;;;;6249561;22;20016;-86
2023/10/24 14:22:09;;;;;;;10.88;2.53;;;;;;;;;;6224661;22;20381;-86
2023/10/24 14:24:36;;;;;;;8.25;1.52;;;;;;;;;;6224463;22;20070;-85
2023/10/24 14:27:03;;;;;;;5.93;1.60;;;;;;;;;;6247803;22;20012;-85
2023/10/24 14:29:30;;;;;;;6.57;0.95;;;;;;;;;;6275209;22;20020;-86
2023/10/24 14:31:57;;;;;;;6.43;1.27;;;;;;;;;;6249833;22;20008;-87
2023/10/24 14:34:24;;;;;;;8.60;2.88;;;;;;;;;;6248905;22;20298;-87
2023/10/24 14:36:51;;;;;;;5.47;2.55;;;;;;;;;;6249986;22;20320;-88
2023/10/24 14:39:21;;;;;;;6.72;1.83;;;;;;;;;;6230997;22;20450;-92
2023/10/24 14:41:51;;;;;;;7.22;1.77;;;;;;;;;;6199364;22;20020;-86
2023/10/24 14:44:20;;;;;;;7.32;2.50;;;;;;;;;;6225071;22;20053;-85
2023/10/24 14:46:47;;;;;;;7.65;2.53;;;;;;;;;;6225125;22;20020;-84